Temp: 17.1°C   Baro: 1023.1mb
  Wind: 0.0mph   Dir: ESE (116°)
  Rain: 0.0mm (0.0mm/hr)
  Solar: 0W/m2  Hum: 68%

  • No weather warnings have been issued for the Bath area at this time.

10 day detailed forecast for Bath, United Kingdom

Last update: 08.04.2020 13:12
Next update: 08.04.2020 19:22
Latitude: 51.38° N
Longitude: 2.36° W
meteogram
    Temperature Precipitation Pressure Wind Humidity Clouds Fog
 05:27     18:54 Today
19:00   1023.2 mb 5 mph 81% 7%
20:00   1023.7 mb 5 mph 83% 10%
21:00   1024.0 mb 5 mph 85% 12%
22:00   1024.1 mb 5 mph 88% 9%
23:00   1024.1 mb 5 mph 91% 8%
 05:25     18:56 Tomorrow
00:00   1023.9 mb 5 mph 92% 6%
01:00   1024.0 mb 5 mph 93% 11%
02:00   1023.6 mb 4 mph 95% 9%
03:00   1023.6 mb 4 mph 97% 2%
04:00   1023.8 mb 4 mph 98% 2%
05:00   1023.8 mb 4 mph 98% 8%
06:00   1024.2 mb 4 mph 97% 20%
07:00   1024.7 mb 4 mph 93% 39%
08:00   1025.0 mb 4 mph 84% 32%
09:00   1025.3 mb 5 mph 77% 13%
10:00   1025.2 mb 6 mph 71% 2%
11:00   1024.8 mb 8 mph 62% 0%
12:00   1024.5 mb 9 mph 54% 22%
13:00   1024.3 mb 9 mph 50% 2%
14:00   1024.0 mb 8 mph 51% 18%
15:00   1023.4 mb 7 mph 51% 74%
16:00   1023.1 mb 6 mph 52% 85%
17:00   1023.1 mb 4 mph 58% 97%
18:00   1023.3 mb 3 mph 73% 98%
19:00   1023.5 mb 5 mph 78% 95%
20:00   1024.0 mb 4 mph 78% 99%
21:00   1024.6 mb 6 mph 81% 100%
22:00   1024.9 mb 7 mph 83% 100%
23:00   1024.9 mb 7 mph 84% 99%
 05:23     18:57 Friday 10.04.2020
00:00   1024.9 mb 7 mph 78% 94%
01:00   1024.7 mb 7 mph 77% 92%
02:00   1024.4 mb 7 mph 79% 95%
03:00   1024.1 mb 7 mph 82% 95%
04:00   1023.8 mb 8 mph 85% 95%
05:00   1023.8 mb 7 mph 89% 95%
06:00   1023.9 mb 6 mph 90% 97%
07:00   1024.1 mb 6 mph 86% 98%
08:00   1024.2 mb 6 mph 80% 98%
09:00   1024.0 mb 7 mph 74% 90%
10:00   1023.7 mb 8 mph 70% 73%
11:00   1023.2 mb 8 mph 66% 23%
12:00   1022.5 mb 8 mph 62% 0%
13:00   1021.9 mb 9 mph 56% 17%
14:00   1021.2 mb 9 mph 46% 31%
15:00   1020.8 mb 9 mph 46% 4%
16:00   1020.6 mb 8 mph 48% 15%
17:00   1020.6 mb 7 mph 57% 59%
18:00   1020.8 mb 6 mph 67% 69%
19:00   1021.0 mb 5 mph 75% 70%
20:00   1021.5 mb 6 mph 78% 76%
21:00   1021.7 mb 6 mph 79% 84%
22:00   1021.9 mb 7 mph 77% 81%
23:00   1021.7 mb 8 mph 78% 72%
 05:21     18:59 Saturday 11.04.2020
00:00   1021.5 mb 7 mph 80% 64%
01:00   1021.1 mb 7 mph 84% 20%
02:00   1020.7 mb 6 mph 87% 1%
03:00   1020.6 mb 5 mph 90% 2%
04:00   1020.7 mb 5 mph 91% 2%
05:00   1020.6 mb 5 mph 92% 2%
06:00   1020.8 mb 5 mph 93% 1%
12:00   1017.7 mb 8 mph 57% 97%
18:00 0.1 mm 1016.2 mb 9 mph 85% 88%
 05:19     19:01 Sunday 12.04.2020
00:00 0.6 mm 1015.7 mb 7 mph 95% 95%
06:00 0.1 mm 1013.1 mb 6 mph 96% 100%
12:00 0.7 mm 1012.7 mb 5 mph 85% 98%
18:00 0.4 mm 1012.0 mb 2 mph 82% 78%
 05:17     19:02 Monday 13.04.2020
00:00 0.4 mm 1015.1 mb 10 mph 94% 97%
06:00 1.2 mm 1020.5 mb 16 mph 89% 99%
12:00 0.1 mm 1026.2 mb 20 mph 56% 100%
18:00   1028.0 mb 16 mph 54% 0%
 05:14     19:04 Tuesday 14.04.2020
00:00   1031.4 mb 13 mph 67% 2%
06:00   1030.8 mb 11 mph 72% 2%
12:00   1029.0 mb 13 mph 54% 9%
18:00   1026.1 mb 10 mph 57% 0%
 05:12     19:06 Wednesday 15.04.2020
00:00   1026.7 mb 10 mph 74% 0%
06:00   1024.9 mb 9 mph 89% 0%
12:00   1022.6 mb 14 mph 49% 0%
18:00   1019.8 mb 9 mph 49% 0%
 05:10     19:07 Thursday 16.04.2020
00:00   1019.5 mb 10 mph 75% 13%
06:00 1.0 mm 1018.1 mb 8 mph 93% 98%
12:00   1018.4 mb 11 mph 58% 8%
18:00   1017.8 mb 7 mph 64% 64%
 05:08     19:09 Friday 17.04.2020
00:00   1018.3 mb 10 mph 71% 98%
06:00   1017.6 mb 7 mph 91% 100%
12:00   1017.7 mb 3 mph 70% 75%
18:00   1016.2 mb 4 mph 76% 90%